sensor_id;sensor_type;location;lat;lon;timestamp;temperature;humidity
23873;DHT22;42884;50.718;4.630;2023-04-16T00:02:16;9.80;99.90
23873;DHT22;42884;50.718;4.630;2023-04-16T00:04:42;9.90;99.90
23873;DHT22;42884;50.718;4.630;2023-04-16T00:07:08;9.80;99.90
23873;DHT22;42884;50.718;4.630;2023-04-16T00:09:33;9.80;99.90
23873;DHT22;42884;50.718;4.630;2023-04-16T00:11:59;9.60;99.90
23873;DHT22;42884;50.718;4.630;2023-04-16T00:14:25;9.70;99.90
23873;DHT22;42884;50.718;4.630;2023-04-16T00:16:51;9.70;99.90
23873;DHT22;42884;50.718;4.630;2023-04-16T00:19:17;9.70;99.90
23873;DHT22;42884;50.718;4.630;2023-04-16T00:21:42;9.70;99.90
23873;DHT22;42884;50.718;4.630;2023-04-16T00:24:08;9.60;99.90
23873;DHT22;42884;50.718;4.630;2023-04-16T00:26:34;9.50;99.90
23873;DHT22;42884;50.718;4.630;2023-04-16T00:29:00;9.60;99.90
23873;DHT22;42884;50.718;4.630;2023-04-16T00:31:29;9.60;99.90
23873;DHT22;42884;50.718;4.630;2023-04-16T00:33:55;9.70;99.90
23873;DHT22;42884;50.718;4.630;2023-04-16T00:36:23;9.80;99.90
23873;DHT22;42884;50.718;4.630;2023-04-16T00:38:49;9.80;99.90
23873;DHT22;42884;50.718;4.630;2023-04-16T00:41:16;9.80;99.90
23873;DHT22;42884;50.718;4.630;2023-04-16T00:43:42;9.70;99.90
23873;DHT22;42884;50.718;4.630;2023-04-16T00:46:08;9.80;99.90
23873;DHT22;42884;50.718;4.630;2023-04-16T00:48:37;9.70;99.90
23873;DHT22;42884;50.718;4.630;2023-04-16T00:51:05;9.70;99.90
23873;DHT22;42884;50.718;4.630;2023-04-16T00:53:32;9.70;99.90
23873;DHT22;42884;50.718;4.630;2023-04-16T00:55:59;9.70;99.90
23873;DHT22;42884;50.718;4.630;2023-04-16T00:58:26;9.70;99.90
23873;DHT22;42884;50.718;4.630;2023-04-16T01:00:52;9.60;99.90
23873;DHT22;42884;50.718;4.630;2023-04-16T01:03:18;9.60;99.90
23873;DHT22;42884;50.718;4.630;2023-04-16T01:05:44;9.50;99.90
23873;DHT22;42884;50.718;4.630;2023-04-16T01:08:20;9.60;99.90
23873;DHT22;42884;50.718;4.630;2023-04-16T01:10:47;9.60;99.90
23873;DHT22;42884;50.718;4.630;2023-04-16T01:13:12;9.70;99.90
23873;DHT22;42884;50.718;4.630;2023-04-16T01:15:38;9.50;99.90
23873;DHT22;42884;50.718;4.630;2023-04-16T01:18:24;9.60;99.90
23873;DHT22;42884;50.718;4.630;2023-04-16T01:20:50;9.70;99.90
23873;DHT22;42884;50.718;4.630;2023-04-16T01:23:16;9.70;99.90
23873;DHT22;42884;50.718;4.630;2023-04-16T01:25:45;9.80;99.90
23873;DHT22;42884;50.718;4.630;2023-04-16T01:28:11;9.80;99.90
23873;DHT22;42884;50.718;4.630;2023-04-16T01:30:37;9.90;99.90
23873;DHT22;42884;50.718;4.630;2023-04-16T01:33:03;9.90;99.90
23873;DHT22;42884;50.718;4.630;2023-04-16T01:35:29;10.00;99.90
23873;DHT22;42884;50.718;4.630;2023-04-16T01:37:54;9.90;99.90
23873;DHT22;42884;50.718;4.630;2023-04-16T01:40:20;9.90;99.90
23873;DHT22;42884;50.718;4.630;2023-04-16T01:42:46;10.00;99.90
23873;DHT22;42884;50.718;4.630;2023-04-16T01:45:12;10.00;99.90
23873;DHT22;42884;50.718;4.630;2023-04-16T01:47:38;10.00;99.90
23873;DHT22;42884;50.718;4.630;2023-04-16T01:50:04;10.00;99.90
23873;DHT22;42884;50.718;4.630;2023-04-16T01:52:30;10.00;99.90
23873;DHT22;42884;50.718;4.630;2023-04-16T01:54:56;10.10;99.90
23873;DHT22;42884;50.718;4.630;2023-04-16T01:57:22;10.10;99.90
23873;DHT22;42884;50.718;4.630;2023-04-16T01:59:47;10.00;99.90
23873;DHT22;42884;50.718;4.630;2023-04-16T02:02:15;10.00;99.90
23873;DHT22;42884;50.718;4.630;2023-04-16T02:04:42;10.00;99.90
23873;DHT22;42884;50.718;4.630;2023-04-16T02:07:09;9.80;99.90
23873;DHT22;42884;50.718;4.630;2023-04-16T02:09:36;9.80;99.90
23873;DHT22;42884;50.718;4.630;2023-04-16T02:12:02;9.70;99.90
23873;DHT22;42884;50.718;4.630;2023-04-16T02:14:29;9.80;99.90
23873;DHT22;42884;50.718;4.630;2023-04-16T02:16:55;9.80;99.90
23873;DHT22;42884;50.718;4.630;2023-04-16T02:19:21;9.80;99.90
23873;DHT22;42884;50.718;4.630;2023-04-16T02:21:47;9.90;99.90
23873;DHT22;42884;50.718;4.630;2023-04-16T02:24:13;9.90;99.90
23873;DHT22;42884;50.718;4.630;2023-04-16T02:26:39;10.00;99.90
23873;DHT22;42884;50.718;4.630;2023-04-16T02:29:05;9.90;99.90
23873;DHT22;42884;50.718;4.630;2023-04-16T02:31:31;9.90;99.90
23873;DHT22;42884;50.718;4.630;2023-04-16T02:33:57;9.70;99.90
23873;DHT22;42884;50.718;4.630;2023-04-16T02:36:23;9.60;99.90
23873;DHT22;42884;50.718;4.630;2023-04-16T02:38:48;9.60;99.90
23873;DHT22;42884;50.718;4.630;2023-04-16T02:41:14;9.60;99.90
23873;DHT22;42884;50.718;4.630;2023-04-16T02:43:40;9.60;99.90
23873;DHT22;42884;50.718;4.630;2023-04-16T02:46:06;9.70;99.90
23873;DHT22;42884;50.718;4.630;2023-04-16T02:48:31;9.60;99.90
23873;DHT22;42884;50.718;4.630;2023-04-16T02:50:57;9.50;99.90
23873;DHT22;42884;50.718;4.630;2023-04-16T02:53:23;9.60;99.90
23873;DHT22;42884;50.718;4.630;2023-04-16T02:55:53;9.60;99.90
23873;DHT22;42884;50.718;4.630;2023-04-16T02:58:20;9.60;99.90
23873;DHT22;42884;50.718;4.630;2023-04-16T03:00:46;9.60;99.90
23873;DHT22;42884;50.718;4.630;2023-04-16T03:03:13;9.70;99.90
23873;DHT22;42884;50.718;4.630;2023-04-16T03:05:38;9.70;99.90
23873;DHT22;42884;50.718;4.630;2023-04-16T03:08:05;9.80;99.90
23873;DHT22;42884;50.718;4.630;2023-04-16T03:10:31;9.80;99.90
23873;DHT22;42884;50.718;4.630;2023-04-16T03:12:57;9.60;99.90
23873;DHT22;42884;50.718;4.630;2023-04-16T03:15:23;9.60;99.90
23873;DHT22;42884;50.718;4.630;2023-04-16T03:17:49;9.70;99.90
23873;DHT22;42884;50.718;4.630;2023-04-16T03:20:15;9.80;99.90
23873;DHT22;42884;50.718;4.630;2023-04-16T03:22:41;9.80;99.90
23873;DHT22;42884;50.718;4.630;2023-04-16T03:25:08;9.80;99.90
23873;DHT22;42884;50.718;4.630;2023-04-16T03:27:34;9.80;99.90
23873;DHT22;42884;50.718;4.630;2023-04-16T03:30:01;9.90;99.90
23873;DHT22;42884;50.718;4.630;2023-04-16T03:32:26;9.70;99.90
23873;DHT22;42884;50.718;4.630;2023-04-16T03:34:52;9.70;99.90
23873;DHT22;42884;50.718;4.630;2023-04-16T03:37:18;9.60;99.90
23873;DHT22;42884;50.718;4.630;2023-04-16T03:39:44;9.60;99.90
23873;DHT22;42884;50.718;4.630;2023-04-16T03:42:09;9.70;99.90
23873;DHT22;42884;50.718;4.630;2023-04-16T03:44:35;9.80;99.90
23873;DHT22;42884;50.718;4.630;2023-04-16T03:47:01;9.80;99.90
23873;DHT22;42884;50.718;4.630;2023-04-16T03:49:27;9.80;99.90
23873;DHT22;42884;50.718;4.630;2023-04-16T03:51:52;9.70;99.90
23873;DHT22;42884;50.718;4.630;2023-04-16T03:54:18;9.80;99.90
23873;DHT22;42884;50.718;4.630;2023-04-16T03:56:44;9.80;99.90
23873;DHT22;42884;50.718;4.630;2023-04-16T03:59:10;9.90;99.90
23873;DHT22;42884;50.718;4.630;2023-04-16T04:01:35;9.80;99.90
23873;DHT22;42884;50.718;4.630;2023-04-16T04:04:01;9.70;99.90
23873;DHT22;42884;50.718;4.630;2023-04-16T04:06:27;9.60;99.90
23873;DHT22;42884;50.718;4.630;2023-04-16T04:08:53;9.60;99.90
23873;DHT22;42884;50.718;4.630;2023-04-16T04:11:19;9.70;99.90
23873;DHT22;42884;50.718;4.630;2023-04-16T04:13:45;9.80;99.90
23873;DHT22;42884;50.718;4.630;2023-04-16T04:16:10;9.70;99.90
23873;DHT22;42884;50.718;4.630;2023-04-16T04:18:36;9.60;99.90
23873;DHT22;42884;50.718;4.630;2023-04-16T04:21:08;9.60;99.90
23873;DHT22;42884;50.718;4.630;2023-04-16T04:23:35;9.60;99.90
23873;DHT22;42884;50.718;4.630;2023-04-16T04:26:01;9.60;99.90
23873;DHT22;42884;50.718;4.630;2023-04-16T04:28:31;9.60;99.90
23873;DHT22;42884;50.718;4.630;2023-04-16T04:30:58;9.70;99.90
23873;DHT22;42884;50.718;4.630;2023-04-16T04:33:24;9.60;99.90
23873;DHT22;42884;50.718;4.630;2023-04-16T04:35:51;9.70;99.90
23873;DHT22;42884;50.718;4.630;2023-04-16T04:38:16;9.70;99.90
23873;DHT22;42884;50.718;4.630;2023-04-16T04:40:49;9.70;99.90
23873;DHT22;42884;50.718;4.630;2023-04-16T04:43:14;9.70;99.90
23873;DHT22;42884;50.718;4.630;2023-04-16T04:45:40;9.80;99.90
23873;DHT22;42884;50.718;4.630;2023-04-16T04:48:06;9.90;99.90
23873;DHT22;42884;50.718;4.630;2023-04-16T04:50:32;9.90;99.90
23873;DHT22;42884;50.718;4.630;2023-04-16T04:52:58;9.80;99.90
23873;DHT22;42884;50.718;4.630;2023-04-16T04:55:24;9.80;99.90
23873;DHT22;42884;50.718;4.630;2023-04-16T04:57:49;9.80;99.90
23873;DHT22;42884;50.718;4.630;2023-04-16T05:00:15;9.70;99.90
23873;DHT22;42884;50.718;4.630;2023-04-16T05:02:41;9.70;99.90
23873;DHT22;42884;50.718;4.630;2023-04-16T05:05:07;9.70;99.90
23873;DHT22;42884;50.718;4.630;2023-04-16T05:07:33;9.70;99.90
23873;DHT22;42884;50.718;4.630;2023-04-16T05:09:58;9.70;99.90
23873;DHT22;42884;50.718;4.630;2023-04-16T05:12:24;9.80;99.90
23873;DHT22;42884;50.718;4.630;2023-04-16T05:14:50;9.80;99.90
23873;DHT22;42884;50.718;4.630;2023-04-16T05:17:16;9.90;99.90
23873;DHT22;42884;50.718;4.630;2023-04-16T05:19:42;9.80;99.90
23873;DHT22;42884;50.718;4.630;2023-04-16T05:22:07;9.70;99.90
23873;DHT22;42884;50.718;4.630;2023-04-16T05:24:33;9.60;99.90
23873;DHT22;42884;50.718;4.630;2023-04-16T05:26:59;9.60;99.90
23873;DHT22;42884;50.718;4.630;2023-04-16T05:29:25;9.60;99.90
23873;DHT22;42884;50.718;4.630;2023-04-16T05:31:51;9.60;99.90
23873;DHT22;42884;50.718;4.630;2023-04-16T05:34:17;9.60;99.90
23873;DHT22;42884;50.718;4.630;2023-04-16T05:36:43;9.60;99.90
23873;DHT22;42884;50.718;4.630;2023-04-16T05:39:09;9.50;99.90
23873;DHT22;42884;50.718;4.630;2023-04-16T05:41:35;9.60;99.90
23873;DHT22;42884;50.718;4.630;2023-04-16T05:44:01;9.50;99.90
23873;DHT22;42884;50.718;4.630;2023-04-16T05:46:26;9.60;99.90
23873;DHT22;42884;50.718;4.630;2023-04-16T05:48:52;9.60;99.90
23873;DHT22;42884;50.718;4.630;2023-04-16T05:51:18;9.60;99.90
23873;DHT22;42884;50.718;4.630;2023-04-16T05:53:44;9.70;99.90
23873;DHT22;42884;50.718;4.630;2023-04-16T05:56:10;9.70;99.90
23873;DHT22;42884;50.718;4.630;2023-04-16T05:58:36;9.70;99.90
23873;DHT22;42884;50.718;4.630;2023-04-16T06:01:01;9.80;99.90
23873;DHT22;42884;50.718;4.630;2023-04-16T06:03:27;9.80;99.90
23873;DHT22;42884;50.718;4.630;2023-04-16T06:05:53;9.80;99.90
23873;DHT22;42884;50.718;4.630;2023-04-16T06:08:19;9.80;99.90
23873;DHT22;42884;50.718;4.630;2023-04-16T06:10:45;9.80;99.90
23873;DHT22;42884;50.718;4.630;2023-04-16T06:13:12;9.80;99.90
23873;DHT22;42884;50.718;4.630;2023-04-16T06:15:37;9.80;99.90
23873;DHT22;42884;50.718;4.630;2023-04-16T06:18:03;9.90;99.90
23873;DHT22;42884;50.718;4.630;2023-04-16T06:20:30;9.90;99.90
23873;DHT22;42884;50.718;4.630;2023-04-16T06:22:55;9.80;99.90
23873;DHT22;42884;50.718;4.630;2023-04-16T06:25:21;9.70;99.90
23873;DHT22;42884;50.718;4.630;2023-04-16T06:27:47;9.80;99.90
23873;DHT22;42884;50.718;4.630;2023-04-16T06:30:14;9.70;99.90
23873;DHT22;42884;50.718;4.630;2023-04-16T06:32:41;9.70;99.90
23873;DHT22;42884;50.718;4.630;2023-04-16T06:35:07;9.70;99.90
23873;DHT22;42884;50.718;4.630;2023-04-16T06:37:33;9.80;99.90
23873;DHT22;42884;50.718;4.630;2023-04-16T06:39:59;9.80;99.90
23873;DHT22;42884;50.718;4.630;2023-04-16T06:42:25;9.80;99.90
23873;DHT22;42884;50.718;4.630;2023-04-16T06:44:51;9.90;99.90
23873;DHT22;42884;50.718;4.630;2023-04-16T06:47:17;10.00;99.90
23873;DHT22;42884;50.718;4.630;2023-04-16T06:49:42;10.00;99.90
23873;DHT22;42884;50.718;4.630;2023-04-16T06:52:08;10.00;99.90
23873;DHT22;42884;50.718;4.630;2023-04-16T06:54:35;10.00;99.90
23873;DHT22;42884;50.718;4.630;2023-04-16T06:57:01;9.80;99.90
23873;DHT22;42884;50.718;4.630;2023-04-16T06:59:26;9.90;99.90
23873;DHT22;42884;50.718;4.630;2023-04-16T07:01:52;9.80;99.90
23873;DHT22;42884;50.718;4.630;2023-04-16T07:04:18;9.90;99.90
23873;DHT22;42884;50.718;4.630;2023-04-16T07:06:44;9.90;99.90
23873;DHT22;42884;50.718;4.630;2023-04-16T07:09:09;10.00;99.90
23873;DHT22;42884;50.718;4.630;2023-04-16T07:11:35;10.00;99.90
23873;DHT22;42884;50.718;4.630;2023-04-16T07:14:01;9.90;99.90
23873;DHT22;42884;50.718;4.630;2023-04-16T07:16:27;10.00;99.90
23873;DHT22;42884;50.718;4.630;2023-04-16T07:18:53;10.00;99.90
23873;DHT22;42884;50.718;4.630;2023-04-16T07:21:19;10.00;99.90
23873;DHT22;42884;50.718;4.630;2023-04-16T07:23:45;10.00;99.90
23873;DHT22;42884;50.718;4.630;2023-04-16T07:26:11;10.10;99.90
23873;DHT22;42884;50.718;4.630;2023-04-16T07:28:37;10.10;99.90
23873;DHT22;42884;50.718;4.630;2023-04-16T07:31:02;10.10;99.90
23873;DHT22;42884;50.718;4.630;2023-04-16T07:33:28;10.10;99.90
23873;DHT22;42884;50.718;4.630;2023-04-16T07:35:55;10.10;99.90
23873;DHT22;42884;50.718;4.630;2023-04-16T07:38:21;10.00;99.90
23873;DHT22;42884;50.718;4.630;2023-04-16T07:40:47;10.10;99.90
23873;DHT22;42884;50.718;4.630;2023-04-16T07:43:13;10.10;99.90
23873;DHT22;42884;50.718;4.630;2023-04-16T07:45:40;10.20;99.90
23873;DHT22;42884;50.718;4.630;2023-04-16T07:48:05;10.20;99.90
23873;DHT22;42884;50.718;4.630;2023-04-16T07:50:31;10.30;99.90
23873;DHT22;42884;50.718;4.630;2023-04-16T07:52:57;10.30;99.90
23873;DHT22;42884;50.718;4.630;2023-04-16T07:55:23;10.40;99.90
23873;DHT22;42884;50.718;4.630;2023-04-16T07:57:48;10.40;99.90
23873;DHT22;42884;50.718;4.630;2023-04-16T08:00:14;10.30;99.90
23873;DHT22;42884;50.718;4.630;2023-04-16T08:02:41;10.30;99.90
23873;DHT22;42884;50.718;4.630;2023-04-16T08:05:07;10.30;99.90
23873;DHT22;42884;50.718;4.630;2023-04-16T08:07:33;10.30;99.90
23873;DHT22;42884;50.718;4.630;2023-04-16T08:09:59;10.40;99.90
23873;DHT22;42884;50.718;4.630;2023-04-16T08:12:24;10.40;99.90
23873;DHT22;42884;50.718;4.630;2023-04-16T08:14:50;10.50;99.90
23873;DHT22;42884;50.718;4.630;2023-04-16T08:17:16;10.50;99.90
23873;DHT22;42884;50.718;4.630;2023-04-16T08:19:43;10.40;99.90
23873;DHT22;42884;50.718;4.630;2023-04-16T08:22:12;10.40;99.90
23873;DHT22;42884;50.718;4.630;2023-04-16T08:24:38;10.40;99.90
23873;DHT22;42884;50.718;4.630;2023-04-16T08:27:04;10.40;99.90
23873;DHT22;42884;50.718;4.630;2023-04-16T08:29:30;10.30;99.90
23873;DHT22;42884;50.718;4.630;2023-04-16T08:31:56;10.30;99.90
23873;DHT22;42884;50.718;4.630;2023-04-16T08:34:23;10.30;99.90
23873;DHT22;42884;50.718;4.630;2023-04-16T08:36:49;10.40;99.90
23873;DHT22;42884;50.718;4.630;2023-04-16T08:39:14;10.30;99.90
23873;DHT22;42884;50.718;4.630;2023-04-16T08:41:42;10.30;99.90
23873;DHT22;42884;50.718;4.630;2023-04-16T08:44:13;10.30;99.90
23873;DHT22;42884;50.718;4.630;2023-04-16T08:47:02;10.20;99.90
23873;DHT22;42884;50.718;4.630;2023-04-16T08:49:31;10.20;99.90
23873;DHT22;42884;50.718;4.630;2023-04-16T08:51:59;10.20;99.90
23873;DHT22;42884;50.718;4.630;2023-04-16T08:54:51;10.20;99.90
23873;DHT22;42884;50.718;4.630;2023-04-16T08:57:23;10.30;99.90
23873;DHT22;42884;50.718;4.630;2023-04-16T08:59:53;10.40;99.90
23873;DHT22;42884;50.718;4.630;2023-04-16T09:02:19;10.40;99.90
23873;DHT22;42884;50.718;4.630;2023-04-16T09:04:46;10.40;99.90
23873;DHT22;42884;50.718;4.630;2023-04-16T09:07:13;10.30;99.90
23873;DHT22;42884;50.718;4.630;2023-04-16T09:09:41;10.40;99.90
23873;DHT22;42884;50.718;4.630;2023-04-16T09:12:09;10.40;99.90
23873;DHT22;42884;50.718;4.630;2023-04-16T09:14:35;10.40;99.90
23873;DHT22;42884;50.718;4.630;2023-04-16T09:17:02;10.40;99.90
23873;DHT22;42884;50.718;4.630;2023-04-16T09:19:28;10.50;99.90
23873;DHT22;42884;50.718;4.630;2023-04-16T09:21:54;10.40;99.90
23873;DHT22;42884;50.718;4.630;2023-04-16T09:24:21;10.50;99.90
23873;DHT22;42884;50.718;4.630;2023-04-16T09:26:47;10.40;99.90
23873;DHT22;42884;50.718;4.630;2023-04-16T09:29:32;10.40;99.90
23873;DHT22;42884;50.718;4.630;2023-04-16T09:32:03;10.40;99.90
23873;DHT22;42884;50.718;4.630;2023-04-16T09:34:31;10.50;99.90
23873;DHT22;42884;50.718;4.630;2023-04-16T09:37:13;10.50;99.90
23873;DHT22;42884;50.718;4.630;2023-04-16T09:39:42;10.70;99.90
23873;DHT22;42884;50.718;4.630;2023-04-16T09:42:08;10.70;99.90
23873;DHT22;42884;50.718;4.630;2023-04-16T09:44:35;10.50;99.90
23873;DHT22;42884;50.718;4.630;2023-04-16T09:47:08;10.60;99.90
23873;DHT22;42884;50.718;4.630;2023-04-16T09:49:36;10.70;99.90
23873;DHT22;42884;50.718;4.630;2023-04-16T09:52:15;10.70;99.90
23873;DHT22;42884;50.718;4.630;2023-04-16T09:54:51;10.70;99.90
23873;DHT22;42884;50.718;4.630;2023-04-16T09:57:22;10.70;99.90
23873;DHT22;42884;50.718;4.630;2023-04-16T09:59:52;10.80;99.90
23873;DHT22;42884;50.718;4.630;2023-04-16T10:02:18;10.80;99.90
23873;DHT22;42884;50.718;4.630;2023-04-16T10:04:46;10.70;99.90
23873;DHT22;42884;50.718;4.630;2023-04-16T10:07:12;10.80;99.90
23873;DHT22;42884;50.718;4.630;2023-04-16T10:09:38;10.90;99.90
23873;DHT22;42884;50.718;4.630;2023-04-16T10:12:05;10.90;99.90
23873;DHT22;42884;50.718;4.630;2023-04-16T10:14:32;10.80;99.90
23873;DHT22;42884;50.718;4.630;2023-04-16T10:17:02;10.90;99.90
23873;DHT22;42884;50.718;4.630;2023-04-16T10:19:28;10.90;99.90
23873;DHT22;42884;50.718;4.630;2023-04-16T10:21:57;10.90;99.90
23873;DHT22;42884;50.718;4.630;2023-04-16T10:24:24;10.80;99.90
23873;DHT22;42884;50.718;4.630;2023-04-16T10:26:51;10.80;99.90
23873;DHT22;42884;50.718;4.630;2023-04-16T10:29:18;10.80;99.90
23873;DHT22;42884;50.718;4.630;2023-04-16T10:31:44;10.70;99.90
23873;DHT22;42884;50.718;4.630;2023-04-16T10:34:11;10.70;99.90
23873;DHT22;42884;50.718;4.630;2023-04-16T10:36:37;10.80;99.90
23873;DHT22;42884;50.718;4.630;2023-04-16T10:39:09;10.90;99.90
23873;DHT22;42884;50.718;4.630;2023-04-16T10:41:37;10.80;99.90
23873;DHT22;42884;50.718;4.630;2023-04-16T10:44:04;10.90;99.90
23873;DHT22;42884;50.718;4.630;2023-04-16T10:46:32;11.00;99.90
23873;DHT22;42884;50.718;4.630;2023-04-16T10:49:02;11.00;99.90
23873;DHT22;42884;50.718;4.630;2023-04-16T10:51:36;10.80;99.90
23873;DHT22;42884;50.718;4.630;2023-04-16T10:56:39;10.80;99.90
23873;DHT22;42884;50.718;4.630;2023-04-16T10:59:07;11.00;99.90
23873;DHT22;42884;50.718;4.630;2023-04-16T11:01:36;10.90;99.90
23873;DHT22;42884;50.718;4.630;2023-04-16T11:07:16;11.00;99.90
23873;DHT22;42884;50.718;4.630;2023-04-16T11:12:45;11.00;99.90
23873;DHT22;42884;50.718;4.630;2023-04-16T11:15:12;11.10;99.90
23873;DHT22;42884;50.718;4.630;2023-04-16T11:17:46;11.10;99.90
23873;DHT22;42884;50.718;4.630;2023-04-16T11:20:26;11.10;99.90
23873;DHT22;42884;50.718;4.630;2023-04-16T11:22:56;11.10;99.90
23873;DHT22;42884;50.718;4.630;2023-04-16T11:25:31;11.10;99.90
23873;DHT22;42884;50.718;4.630;2023-04-16T11:27:58;11.20;99.90
23873;DHT22;42884;50.718;4.630;2023-04-16T11:30:29;11.30;99.90
23873;DHT22;42884;50.718;4.630;2023-04-16T11:32:55;11.40;99.90
23873;DHT22;42884;50.718;4.630;2023-04-16T11:35:21;11.40;99.90
23873;DHT22;42884;50.718;4.630;2023-04-16T11:37:47;11.40;99.90
23873;DHT22;42884;50.718;4.630;2023-04-16T11:40:13;11.20;99.90
23873;DHT22;42884;50.718;4.630;2023-04-16T11:42:42;11.20;99.90
23873;DHT22;42884;50.718;4.630;2023-04-16T11:45:10;11.30;99.90
23873;DHT22;42884;50.718;4.630;2023-04-16T11:48:02;11.40;99.90
23873;DHT22;42884;50.718;4.630;2023-04-16T11:50:28;11.30;99.90
23873;DHT22;42884;50.718;4.630;2023-04-16T11:52:56;11.30;99.90
23873;DHT22;42884;50.718;4.630;2023-04-16T11:55:27;11.20;99.90
23873;DHT22;42884;50.718;4.630;2023-04-16T11:57:53;11.30;99.90
23873;DHT22;42884;50.718;4.630;2023-04-16T12:00:19;11.30;99.90
23873;DHT22;42884;50.718;4.630;2023-04-16T12:02:49;11.40;99.90
23873;DHT22;42884;50.718;4.630;2023-04-16T12:05:35;11.50;99.90
23873;DHT22;42884;50.718;4.630;2023-04-16T12:08:04;11.60;99.90
23873;DHT22;42884;50.718;4.630;2023-04-16T12:10:33;11.70;99.90
23873;DHT22;42884;50.718;4.630;2023-04-16T12:13:28;11.50;99.90
23873;DHT22;42884;50.718;4.630;2023-04-16T12:15:55;11.50;99.90
23873;DHT22;42884;50.718;4.630;2023-04-16T12:18:23;11.60;99.90
23873;DHT22;42884;50.718;4.630;2023-04-16T12:20:49;11.60;99.90
23873;DHT22;42884;50.718;4.630;2023-04-16T12:25:51;11.70;99.90
23873;DHT22;42884;50.718;4.630;2023-04-16T12:28:30;11.80;99.90
23873;DHT22;42884;50.718;4.630;2023-04-16T12:30:57;11.80;99.90
23873;DHT22;42884;50.718;4.630;2023-04-16T12:33:22;11.70;99.90
23873;DHT22;42884;50.718;4.630;2023-04-16T12:35:48;11.70;99.90
23873;DHT22;42884;50.718;4.630;2023-04-16T12:38:15;11.60;99.90
23873;DHT22;42884;50.718;4.630;2023-04-16T12:40:41;11.60;99.90
23873;DHT22;42884;50.718;4.630;2023-04-16T12:43:07;11.70;99.90
23873;DHT22;42884;50.718;4.630;2023-04-16T12:45:33;11.50;99.90
23873;DHT22;42884;50.718;4.630;2023-04-16T12:47:59;11.60;99.90
23873;DHT22;42884;50.718;4.630;2023-04-16T12:50:25;11.70;99.90
23873;DHT22;42884;50.718;4.630;2023-04-16T12:52:54;11.60;99.90
23873;DHT22;42884;50.718;4.630;2023-04-16T12:55:20;11.80;99.90
23873;DHT22;42884;50.718;4.630;2023-04-16T12:57:45;11.70;99.90
23873;DHT22;42884;50.718;4.630;2023-04-16T13:00:13;11.70;99.90
23873;DHT22;42884;50.718;4.630;2023-04-16T13:02:40;11.70;99.90
23873;DHT22;42884;50.718;4.630;2023-04-16T13:05:06;11.80;99.90
23873;DHT22;42884;50.718;4.630;2023-04-16T13:07:32;11.90;99.90
23873;DHT22;42884;50.718;4.630;2023-04-16T13:09:59;11.90;99.90
23873;DHT22;42884;50.718;4.630;2023-04-16T13:12:25;11.90;99.90
23873;DHT22;42884;50.718;4.630;2023-04-16T13:14:52;11.80;99.90
23873;DHT22;42884;50.718;4.630;2023-04-16T13:17:18;11.70;99.90
23873;DHT22;42884;50.718;4.630;2023-04-16T13:19:43;11.70;99.90
23873;DHT22;42884;50.718;4.630;2023-04-16T13:22:10;11.70;99.90
23873;DHT22;42884;50.718;4.630;2023-04-16T13:24:36;11.80;99.90
23873;DHT22;42884;50.718;4.630;2023-04-16T13:27:02;11.90;99.90
23873;DHT22;42884;50.718;4.630;2023-04-16T13:29:28;11.90;99.90
23873;DHT22;42884;50.718;4.630;2023-04-16T13:31:54;11.90;99.90
23873;DHT22;42884;50.718;4.630;2023-04-16T13:34:20;12.00;99.90
23873;DHT22;42884;50.718;4.630;2023-04-16T13:36:46;12.10;99.90
23873;DHT22;42884;50.718;4.630;2023-04-16T13:39:11;12.10;99.90
23873;DHT22;42884;50.718;4.630;2023-04-16T13:41:37;12.00;99.90
23873;DHT22;42884;50.718;4.630;2023-04-16T13:44:03;12.10;99.90
23873;DHT22;42884;50.718;4.630;2023-04-16T13:46:29;12.10;99.90
23873;DHT22;42884;50.718;4.630;2023-04-16T13:48:55;12.20;99.90
23873;DHT22;42884;50.718;4.630;2023-04-16T13:51:21;12.10;99.90
23873;DHT22;42884;50.718;4.630;2023-04-16T13:53:47;12.10;99.90
23873;DHT22;42884;50.718;4.630;2023-04-16T13:56:13;12.10;99.90
23873;DHT22;42884;50.718;4.630;2023-04-16T13:58:39;12.10;99.90
23873;DHT22;42884;50.718;4.630;2023-04-16T14:01:06;12.20;99.90
23873;DHT22;42884;50.718;4.630;2023-04-16T14:03:31;12.30;99.90
23873;DHT22;42884;50.718;4.630;2023-04-16T14:06:01;12.30;99.90
23873;DHT22;42884;50.718;4.630;2023-04-16T14:08:27;12.30;99.90
23873;DHT22;42884;50.718;4.630;2023-04-16T14:10:52;12.30;99.90
23873;DHT22;42884;50.718;4.630;2023-04-16T14:13:18;12.40;99.90
23873;DHT22;42884;50.718;4.630;2023-04-16T14:15:45;12.40;99.90
23873;DHT22;42884;50.718;4.630;2023-04-16T14:18:11;12.40;99.90
23873;DHT22;42884;50.718;4.630;2023-04-16T14:20:36;12.40;99.90
23873;DHT22;42884;50.718;4.630;2023-04-16T14:23:04;12.40;99.90
23873;DHT22;42884;50.718;4.630;2023-04-16T14:25:30;12.40;99.90
23873;DHT22;42884;50.718;4.630;2023-04-16T14:28:00;12.30;99.90
23873;DHT22;42884;50.718;4.630;2023-04-16T14:30:26;12.30;99.90
23873;DHT22;42884;50.718;4.630;2023-04-16T14:32:52;12.30;99.90
23873;DHT22;42884;50.718;4.630;2023-04-16T14:35:18;12.30;99.90
23873;DHT22;42884;50.718;4.630;2023-04-16T14:37:44;12.20;99.90
23873;DHT22;42884;50.718;4.630;2023-04-16T14:40:11;12.30;99.90
23873;DHT22;42884;50.718;4.630;2023-04-16T14:42:37;12.40;99.90
23873;DHT22;42884;50.718;4.630;2023-04-16T14:45:03;12.40;99.90
23873;DHT22;42884;50.718;4.630;2023-04-16T14:47:31;12.50;99.90
23873;DHT22;42884;50.718;4.630;2023-04-16T14:49:58;12.50;99.90
23873;DHT22;42884;50.718;4.630;2023-04-16T14:52:24;12.60;99.90
23873;DHT22;42884;50.718;4.630;2023-04-16T14:54:50;12.70;99.90
23873;DHT22;42884;50.718;4.630;2023-04-16T14:57:16;12.70;99.90
23873;DHT22;42884;50.718;4.630;2023-04-16T14:59:42;12.70;99.90
23873;DHT22;42884;50.718;4.630;2023-04-16T15:02:08;12.70;99.90
23873;DHT22;42884;50.718;4.630;2023-04-16T15:04:35;12.70;99.90
23873;DHT22;42884;50.718;4.630;2023-04-16T15:07:01;12.70;99.90
23873;DHT22;42884;50.718;4.630;2023-04-16T15:09:26;12.70;99.90
23873;DHT22;42884;50.718;4.630;2023-04-16T15:11:53;12.70;99.90
23873;DHT22;42884;50.718;4.630;2023-04-16T15:14:19;12.70;99.90
23873;DHT22;42884;50.718;4.630;2023-04-16T15:16:46;12.70;99.90
23873;DHT22;42884;50.718;4.630;2023-04-16T15:19:12;12.70;99.90
23873;DHT22;42884;50.718;4.630;2023-04-16T15:21:38;12.60;99.90
23873;DHT22;42884;50.718;4.630;2023-04-16T15:24:04;12.70;99.90
23873;DHT22;42884;50.718;4.630;2023-04-16T15:26:30;12.70;99.90
23873;DHT22;42884;50.718;4.630;2023-04-16T15:28:56;12.70;99.90
23873;DHT22;42884;50.718;4.630;2023-04-16T15:31:21;12.80;99.90
23873;DHT22;42884;50.718;4.630;2023-04-16T15:33:48;12.70;99.90
23873;DHT22;42884;50.718;4.630;2023-04-16T15:36:13;12.80;99.90
23873;DHT22;42884;50.718;4.630;2023-04-16T15:38:39;12.80;99.90
23873;DHT22;42884;50.718;4.630;2023-04-16T15:41:07;12.80;99.90
23873;DHT22;42884;50.718;4.630;2023-04-16T15:43:33;12.80;99.90
23873;DHT22;42884;50.718;4.630;2023-04-16T15:45:59;12.70;99.90
23873;DHT22;42884;50.718;4.630;2023-04-16T15:48:24;12.60;99.90